Historique des mesures à Cassis (13260), France
Quotidien Résumé Mai 26, 2017 Unités:  US    Métrique   Métrique/US
« Précédent (Jour)
Suivant (Jour) »
Quotidien Hebdomadaire Mensuel Annuel Période au choix
  Maximum: Minimum: Moyenne:
Température: 32 °F 63.1 °F 71.2 °F
Point de rosée: 32 °F 53.2 °F 57.4 °F
Humidité: Humidity % 41 % 60 %
Vitesse du vent: WindSpeedKMH mph 0.0 mph 1.5 mph
Rafales: WindSpeedGustKMH mph - -
Vent:- - South
Pression: 0 in 29.9 in -
Précipitations: 0 in    
Historical Graphs
 
 
Mesures pour : Mai 26, 2017
Heure Temperature Point de rosée Pression Vent Vitesse du vent Rafales Humidité Pluie (par heure) Conditions
32 °F 32 °F 0 in Calm     Humidity % 0 in SoftwareType W/m2
00:10 66.6 °F 57.9 °F 29.9 in Calm     74 % 0 in open2300-1.11 W/m2
01:10 66.2 °F 57.9 °F 29.9 in Calm     75 % 0 in open2300-1.11 W/m2
02:10 65.5 °F 57.4 °F 29.9 in Calm     75 % 0 in open2300-1.11 W/m2
03:10 64.6 °F 56.8 °F 29.9 in Calm     76 % 0 in open2300-1.11 W/m2
04:10 63.5 °F 56.5 °F 29.9 in Calm     78 % 0 in open2300-1.11 W/m2
05:10 63.3 °F 56.7 °F 29.9 in Calm     79 % 0 in open2300-1.11 W/m2
06:10 63.1 °F 56.8 °F 29.9 in Calm     80 % 0 in open2300-1.11 W/m2
07:10 63.3 °F 56.7 °F 29.9 in Calm     79 % 0 in open2300-1.11 W/m2
08:10 68.7 °F 60.4 °F 29.9 in Calm     75 % 0 in open2300-1.11 W/m2
09:10 69.1 °F 59.7 °F 29.9 in WNW 1.8 mph 1.8 mph 72 % 0 in open2300-1.11 W/m2
10:10 73.8 °F 62.1 °F 29.9 in Calm   4.7 mph 67 % 0 in open2300-1.11 W/m2
11:10 81.1 °F 61.9 °F 29.9 in Calm   5.5 mph 52 % 0 in open2300-1.11 W/m2
12:10 82.8 °F 61.5 °F 29.9 in SSE 13.4 mph 13.4 mph 49 % 0 in open2300-1.11 W/m2
13:11 82.9 °F 60.6 °F 29.9 in South 5.8 mph 6.1 mph 47 % 0 in open2300-1.11 W/m2
14:10 83.5 °F 59.7 °F 29.9 in SSE 4.3 mph 6.1 mph 45 % 0 in open2300-1.11 W/m2
15:10 82.9 °F 58.1 °F 29.9 in NE 2.1 mph 18.7 mph 43 % 0 in open2300-1.11 W/m2
16:10 81.7 °F 58.8 °F 29.9 in SSE 2.9 mph 3.2 mph 46 % 0 in open2300-1.11 W/m2
17:10 81.3 °F 55.4 °F 29.9 in SE 1.1 mph 3.5 mph 41 % 0 in open2300-1.11 W/m2
18:10 79.7 °F 58.8 °F 29.9 in WSW 4.0 mph 9.0 mph 49 % 0 in open2300-1.11 W/m2
19:11 76.8 °F 60.4 °F 29.9 in NNW 3.2 mph 3.2 mph 57 % 0 in open2300-1.11 W/m2
20:10 75.7 °F 58.8 °F 29.9 in Calm     56 % 0 in open2300-1.11 W/m2
21:10 73.2 °F 58.5 °F 29.9 in Calm     60 % 0 in open2300-1.11 W/m2
22:10 71.2 °F 55.8 °F 29.9 in Calm     58 % 0 in open2300-1.11 W/m2
23:10 69.6 °F 53.2 °F 29.9 in Calm     56 % 0 in open2300-1.11 W/m2
Observations météo à CASSIS
WU-History script by Weather Underground - 1 mb